sensor_id;sensor_type;location;lat;lon;timestamp;P1;durP1;ratioP1;P2;durP2;ratioP2
75437;SDS011;64015;49.392;15.582;2023-08-31T00:01:53;10.20;;;6.30;;
75437;SDS011;64015;49.392;15.582;2023-08-31T00:04:19;10.07;;;6.53;;
75437;SDS011;64015;49.392;15.582;2023-08-31T00:06:45;8.73;;;5.93;;
75437;SDS011;64015;49.392;15.582;2023-08-31T00:09:12;8.40;;;5.53;;
75437;SDS011;64015;49.392;15.582;2023-08-31T00:11:38;10.15;;;5.90;;
75437;SDS011;64015;49.392;15.582;2023-08-31T00:14:04;10.27;;;5.95;;
75437;SDS011;64015;49.392;15.582;2023-08-31T00:16:29;8.20;;;5.95;;
75437;SDS011;64015;49.392;15.582;2023-08-31T00:18:56;9.55;;;5.68;;
75437;SDS011;64015;49.392;15.582;2023-08-31T00:21:22;7.90;;;5.55;;
75437;SDS011;64015;49.392;15.582;2023-08-31T00:23:53;10.13;;;5.88;;
75437;SDS011;64015;49.392;15.582;2023-08-31T00:26:21;11.05;;;5.75;;
75437;SDS011;64015;49.392;15.582;2023-08-31T00:28:47;9.68;;;5.05;;
75437;SDS011;64015;49.392;15.582;2023-08-31T00:31:12;9.80;;;5.90;;
75437;SDS011;64015;49.392;15.582;2023-08-31T00:33:38;9.63;;;5.93;;
75437;SDS011;64015;49.392;15.582;2023-08-31T00:36:04;8.60;;;6.13;;
75437;SDS011;64015;49.392;15.582;2023-08-31T00:38:30;10.13;;;6.00;;
75437;SDS011;64015;49.392;15.582;2023-08-31T00:40:56;7.72;;;5.15;;
75437;SDS011;64015;49.392;15.582;2023-08-31T00:43:23;7.47;;;5.65;;
75437;SDS011;64015;49.392;15.582;2023-08-31T00:45:49;8.57;;;5.43;;
75437;SDS011;64015;49.392;15.582;2023-08-31T00:48:17;8.85;;;5.53;;
75437;SDS011;64015;49.392;15.582;2023-08-31T00:50:44;8.68;;;5.75;;
75437;SDS011;64015;49.392;15.582;2023-08-31T00:53:11;8.55;;;6.10;;
75437;SDS011;64015;49.392;15.582;2023-08-31T00:55:37;8.52;;;5.15;;
75437;SDS011;64015;49.392;15.582;2023-08-31T00:58:05;7.35;;;4.85;;
75437;SDS011;64015;49.392;15.582;2023-08-31T01:12:17;6.65;;;4.28;;
75437;SDS011;64015;49.392;15.582;2023-08-31T01:14:54;7.50;;;5.00;;
75437;SDS011;64015;49.392;15.582;2023-08-31T01:17:24;8.50;;;4.80;;
75437;SDS011;64015;49.392;15.582;2023-08-31T01:19:54;8.10;;;5.10;;
75437;SDS011;64015;49.392;15.582;2023-08-31T01:25:17;6.05;;;4.10;;
75437;SDS011;64015;49.392;15.582;2023-08-31T01:27:43;9.43;;;5.15;;
75437;SDS011;64015;49.392;15.582;2023-08-31T01:30:09;6.68;;;4.88;;
75437;SDS011;64015;49.392;15.582;2023-08-31T01:32:35;7.95;;;4.95;;
75437;SDS011;64015;49.392;15.582;2023-08-31T01:35:02;7.35;;;5.28;;
75437;SDS011;64015;49.392;15.582;2023-08-31T01:37:36;7.03;;;4.80;;
75437;SDS011;64015;49.392;15.582;2023-08-31T01:43:08;10.82;;;6.07;;
75437;SDS011;64015;49.392;15.582;2023-08-31T01:45:36;7.03;;;4.80;;
75437;SDS011;64015;49.392;15.582;2023-08-31T01:48:04;7.93;;;4.85;;
75437;SDS011;64015;49.392;15.582;2023-08-31T01:50:30;7.45;;;5.20;;
75437;SDS011;64015;49.392;15.582;2023-08-31T01:52:56;11.25;;;5.75;;
75437;SDS011;64015;49.392;15.582;2023-08-31T01:55:22;8.25;;;4.97;;
75437;SDS011;64015;49.392;15.582;2023-08-31T01:57:49;8.38;;;5.25;;
75437;SDS011;64015;49.392;15.582;2023-08-31T02:00:16;7.18;;;4.72;;
75437;SDS011;64015;49.392;15.582;2023-08-31T02:02:42;6.90;;;5.28;;
75437;SDS011;64015;49.392;15.582;2023-08-31T02:05:09;7.07;;;4.75;;
75437;SDS011;64015;49.392;15.582;2023-08-31T02:12:52;8.88;;;5.30;;
75437;SDS011;64015;49.392;15.582;2023-08-31T02:15:18;9.32;;;5.22;;
75437;SDS011;64015;49.392;15.582;2023-08-31T02:17:43;10.05;;;5.45;;
75437;SDS011;64015;49.392;15.582;2023-08-31T02:20:10;6.93;;;4.60;;
75437;SDS011;64015;49.392;15.582;2023-08-31T02:22:36;7.75;;;4.85;;
75437;SDS011;64015;49.392;15.582;2023-08-31T02:25:02;7.32;;;4.68;;
75437;SDS011;64015;49.392;15.582;2023-08-31T02:27:28;7.55;;;5.03;;
75437;SDS011;64015;49.392;15.582;2023-08-31T02:29:55;8.05;;;5.25;;
75437;SDS011;64015;49.392;15.582;2023-08-31T02:32:29;9.75;;;5.63;;
75437;SDS011;64015;49.392;15.582;2023-08-31T02:34:56;7.93;;;4.72;;
75437;SDS011;64015;49.392;15.582;2023-08-31T02:37:21;8.02;;;5.18;;
75437;SDS011;64015;49.392;15.582;2023-08-31T02:39:47;9.90;;;5.45;;
75437;SDS011;64015;49.392;15.582;2023-08-31T02:42:14;7.07;;;4.80;;
75437;SDS011;64015;49.392;15.582;2023-08-31T02:44:40;7.35;;;4.70;;
75437;SDS011;64015;49.392;15.582;2023-08-31T02:47:05;7.35;;;4.68;;
75437;SDS011;64015;49.392;15.582;2023-08-31T02:49:31;6.25;;;4.53;;
75437;SDS011;64015;49.392;15.582;2023-08-31T02:51:57;6.60;;;4.47;;
75437;SDS011;64015;49.392;15.582;2023-08-31T02:54:22;7.28;;;4.38;;
75437;SDS011;64015;49.392;15.582;2023-08-31T02:56:48;8.00;;;4.88;;
75437;SDS011;64015;49.392;15.582;2023-08-31T02:59:20;7.25;;;4.55;;
75437;SDS011;64015;49.392;15.582;2023-08-31T03:01:45;6.72;;;4.28;;
75437;SDS011;64015;49.392;15.582;2023-08-31T03:04:13;6.78;;;4.50;;
75437;SDS011;64015;49.392;15.582;2023-08-31T03:06:38;9.73;;;4.55;;
75437;SDS011;64015;49.392;15.582;2023-08-31T03:09:04;6.72;;;4.40;;
75437;SDS011;64015;49.392;15.582;2023-08-31T03:11:30;7.75;;;4.22;;
75437;SDS011;64015;49.392;15.582;2023-08-31T03:13:56;6.65;;;4.50;;
75437;SDS011;64015;49.392;15.582;2023-08-31T03:16:21;7.88;;;4.60;;
75437;SDS011;64015;49.392;15.582;2023-08-31T03:18:47;8.70;;;4.68;;
75437;SDS011;64015;49.392;15.582;2023-08-31T03:21:13;6.20;;;4.20;;
75437;SDS011;64015;49.392;15.582;2023-08-31T03:23:39;6.63;;;5.05;;
75437;SDS011;64015;49.392;15.582;2023-08-31T03:26:08;7.75;;;4.60;;
75437;SDS011;64015;49.392;15.582;2023-08-31T03:28:35;8.18;;;4.82;;
75437;SDS011;64015;49.392;15.582;2023-08-31T03:31:00;7.32;;;4.65;;
75437;SDS011;64015;49.392;15.582;2023-08-31T03:33:26;6.10;;;4.25;;
75437;SDS011;64015;49.392;15.582;2023-08-31T03:35:54;6.35;;;4.40;;
75437;SDS011;64015;49.392;15.582;2023-08-31T03:38:25;7.13;;;4.32;;
75437;SDS011;64015;49.392;15.582;2023-08-31T03:40:54;7.15;;;4.18;;
75437;SDS011;64015;49.392;15.582;2023-08-31T03:43:23;6.47;;;3.53;;
75437;SDS011;64015;49.392;15.582;2023-08-31T03:45:53;10.25;;;4.32;;
75437;SDS011;64015;49.392;15.582;2023-08-31T03:48:30;5.75;;;3.67;;
75437;SDS011;64015;49.392;15.582;2023-08-31T03:50:55;6.13;;;3.33;;
75437;SDS011;64015;49.392;15.582;2023-08-31T03:53:24;5.57;;;4.10;;
75437;SDS011;64015;49.392;15.582;2023-08-31T03:55:49;7.32;;;3.78;;
75437;SDS011;64015;49.392;15.582;2023-08-31T03:58:27;7.78;;;4.10;;
75437;SDS011;64015;49.392;15.582;2023-08-31T04:00:52;7.78;;;3.70;;
75437;SDS011;64015;49.392;15.582;2023-08-31T04:03:18;5.63;;;3.72;;
75437;SDS011;64015;49.392;15.582;2023-08-31T04:19:46;5.45;;;3.65;;
75437;SDS011;64015;49.392;15.582;2023-08-31T04:22:12;8.55;;;4.22;;
75437;SDS011;64015;49.392;15.582;2023-08-31T04:24:37;6.53;;;4.05;;
75437;SDS011;64015;49.392;15.582;2023-08-31T04:27:03;7.00;;;4.07;;
75437;SDS011;64015;49.392;15.582;2023-08-31T04:29:30;7.00;;;4.35;;
75437;SDS011;64015;49.392;15.582;2023-08-31T04:31:56;6.43;;;4.63;;
75437;SDS011;64015;49.392;15.582;2023-08-31T04:34:21;11.35;;;3.75;;
75437;SDS011;64015;49.392;15.582;2023-08-31T04:36:47;6.05;;;3.90;;
75437;SDS011;64015;49.392;15.582;2023-08-31T04:39:13;6.78;;;3.97;;
75437;SDS011;64015;49.392;15.582;2023-08-31T04:41:38;5.78;;;3.78;;
75437;SDS011;64015;49.392;15.582;2023-08-31T04:44:07;6.65;;;4.13;;
75437;SDS011;64015;49.392;15.582;2023-08-31T04:46:38;7.65;;;4.10;;
75437;SDS011;64015;49.392;15.582;2023-08-31T04:49:04;7.43;;;4.28;;
75437;SDS011;64015;49.392;15.582;2023-08-31T04:51:34;7.55;;;4.45;;
75437;SDS011;64015;49.392;15.582;2023-08-31T04:54:02;8.23;;;5.95;;
75437;SDS011;64015;49.392;15.582;2023-08-31T04:56:29;6.78;;;3.92;;
75437;SDS011;64015;49.392;15.582;2023-08-31T04:58:57;8.05;;;4.47;;
75437;SDS011;64015;49.392;15.582;2023-08-31T05:01:23;6.22;;;4.05;;
75437;SDS011;64015;49.392;15.582;2023-08-31T05:03:48;8.55;;;5.45;;
75437;SDS011;64015;49.392;15.582;2023-08-31T05:06:14;6.70;;;4.80;;
75437;SDS011;64015;49.392;15.582;2023-08-31T05:08:40;9.75;;;4.68;;
75437;SDS011;64015;49.392;15.582;2023-08-31T05:11:05;7.45;;;5.18;;
75437;SDS011;64015;49.392;15.582;2023-08-31T05:13:31;6.38;;;4.60;;
75437;SDS011;64015;49.392;15.582;2023-08-31T05:15:57;11.63;;;5.43;;
75437;SDS011;64015;49.392;15.582;2023-08-31T05:18:22;6.72;;;5.15;;
75437;SDS011;64015;49.392;15.582;2023-08-31T05:20:48;8.48;;;5.30;;
75437;SDS011;64015;49.392;15.582;2023-08-31T05:23:14;8.00;;;5.30;;
75437;SDS011;64015;49.392;15.582;2023-08-31T05:25:43;8.32;;;5.43;;
75437;SDS011;64015;49.392;15.582;2023-08-31T05:28:10;7.88;;;5.30;;
75437;SDS011;64015;49.392;15.582;2023-08-31T05:30:36;14.50;;;5.60;;
75437;SDS011;64015;49.392;15.582;2023-08-31T05:33:01;8.88;;;5.43;;
75437;SDS011;64015;49.392;15.582;2023-08-31T05:35:28;8.10;;;5.25;;
75437;SDS011;64015;49.392;15.582;2023-08-31T05:37:56;15.00;;;5.70;;
75437;SDS011;64015;49.392;15.582;2023-08-31T05:40:21;7.68;;;5.15;;
75437;SDS011;64015;49.392;15.582;2023-08-31T05:42:47;10.32;;;5.90;;
75437;SDS011;64015;49.392;15.582;2023-08-31T05:45:13;8.63;;;5.63;;
75437;SDS011;64015;49.392;15.582;2023-08-31T05:47:40;9.73;;;5.97;;
75437;SDS011;64015;49.392;15.582;2023-08-31T05:50:06;9.82;;;5.95;;
75437;SDS011;64015;49.392;15.582;2023-08-31T05:52:32;8.30;;;5.32;;
75437;SDS011;64015;49.392;15.582;2023-08-31T05:54:58;7.97;;;5.32;;
75437;SDS011;64015;49.392;15.582;2023-08-31T05:57:23;8.27;;;5.35;;
75437;SDS011;64015;49.392;15.582;2023-08-31T05:59:55;11.18;;;5.63;;
75437;SDS011;64015;49.392;15.582;2023-08-31T06:02:21;7.13;;;4.93;;
75437;SDS011;64015;49.392;15.582;2023-08-31T06:04:50;9.10;;;5.38;;
75437;SDS011;64015;49.392;15.582;2023-08-31T06:07:15;10.48;;;5.90;;
75437;SDS011;64015;49.392;15.582;2023-08-31T06:09:41;8.05;;;5.22;;
75437;SDS011;64015;49.392;15.582;2023-08-31T06:12:07;7.10;;;4.68;;
75437;SDS011;64015;49.392;15.582;2023-08-31T06:14:33;7.65;;;5.00;;
75437;SDS011;64015;49.392;15.582;2023-08-31T06:16:58;7.75;;;5.55;;
75437;SDS011;64015;49.392;15.582;2023-08-31T06:19:24;8.48;;;5.03;;
75437;SDS011;64015;49.392;15.582;2023-08-31T06:21:49;7.82;;;5.07;;
75437;SDS011;64015;49.392;15.582;2023-08-31T06:24:15;6.90;;;4.95;;
75437;SDS011;64015;49.392;15.582;2023-08-31T06:26:41;7.10;;;4.82;;
75437;SDS011;64015;49.392;15.582;2023-08-31T06:29:07;8.43;;;4.57;;
75437;SDS011;64015;49.392;15.582;2023-08-31T06:31:36;7.30;;;5.20;;
75437;SDS011;64015;49.392;15.582;2023-08-31T06:34:01;8.82;;;4.93;;
75437;SDS011;64015;49.392;15.582;2023-08-31T06:37:44;6.13;;;4.72;;
75437;SDS011;64015;49.392;15.582;2023-08-31T06:42:36;5.90;;;4.07;;
75437;SDS011;64015;49.392;15.582;2023-08-31T06:45:03;6.00;;;4.30;;
75437;SDS011;64015;49.392;15.582;2023-08-31T06:47:30;6.43;;;3.97;;
75437;SDS011;64015;49.392;15.582;2023-08-31T06:49:56;6.72;;;4.70;;
75437;SDS011;64015;49.392;15.582;2023-08-31T06:52:25;5.65;;;4.25;;
75437;SDS011;64015;49.392;15.582;2023-08-31T06:54:52;6.03;;;3.67;;
75437;SDS011;64015;49.392;15.582;2023-08-31T06:57:24;5.40;;;3.80;;
75437;SDS011;64015;49.392;15.582;2023-08-31T06:59:52;6.38;;;4.60;;
75437;SDS011;64015;49.392;15.582;2023-08-31T07:02:19;6.07;;;3.78;;
75437;SDS011;64015;49.392;15.582;2023-08-31T07:04:45;7.15;;;4.22;;
75437;SDS011;64015;49.392;15.582;2023-08-31T07:07:11;6.15;;;4.07;;
75437;SDS011;64015;49.392;15.582;2023-08-31T07:09:42;6.00;;;3.55;;
75437;SDS011;64015;49.392;15.582;2023-08-31T07:12:09;5.95;;;3.72;;
75437;SDS011;64015;49.392;15.582;2023-08-31T07:14:35;5.00;;;3.30;;
75437;SDS011;64015;49.392;15.582;2023-08-31T07:17:01;5.30;;;3.58;;
75437;SDS011;64015;49.392;15.582;2023-08-31T07:19:28;4.00;;;2.70;;
75437;SDS011;64015;49.392;15.582;2023-08-31T07:21:53;4.70;;;2.67;;
75437;SDS011;64015;49.392;15.582;2023-08-31T07:24:22;4.78;;;2.75;;
75437;SDS011;64015;49.392;15.582;2023-08-31T07:26:48;4.20;;;2.63;;
75437;SDS011;64015;49.392;15.582;2023-08-31T07:29:15;4.18;;;2.55;;
75437;SDS011;64015;49.392;15.582;2023-08-31T07:31:40;3.15;;;2.53;;
75437;SDS011;64015;49.392;15.582;2023-08-31T07:34:06;5.65;;;2.72;;
75437;SDS011;64015;49.392;15.582;2023-08-31T07:36:33;4.30;;;3.03;;
75437;SDS011;64015;49.392;15.582;2023-08-31T07:38:59;5.47;;;2.80;;
75437;SDS011;64015;49.392;15.582;2023-08-31T07:41:24;2.95;;;2.22;;
75437;SDS011;64015;49.392;15.582;2023-08-31T07:43:50;3.33;;;2.38;;
75437;SDS011;64015;49.392;15.582;2023-08-31T07:46:17;3.83;;;2.15;;
75437;SDS011;64015;49.392;15.582;2023-08-31T07:48:43;3.30;;;2.08;;
75437;SDS011;64015;49.392;15.582;2023-08-31T07:51:09;3.45;;;1.95;;
75437;SDS011;64015;49.392;15.582;2023-08-31T07:53:35;2.63;;;1.92;;
75437;SDS011;64015;49.392;15.582;2023-08-31T07:56:00;7.30;;;1.60;;
75437;SDS011;64015;49.392;15.582;2023-08-31T07:58:26;2.90;;;1.52;;
75437;SDS011;64015;49.392;15.582;2023-08-31T08:00:52;3.65;;;1.73;;
75437;SDS011;64015;49.392;15.582;2023-08-31T08:03:19;2.72;;;1.45;;
75437;SDS011;64015;49.392;15.582;2023-08-31T08:05:45;4.25;;;1.83;;
75437;SDS011;64015;49.392;15.582;2023-08-31T08:08:10;6.65;;;1.67;;
75437;SDS011;64015;49.392;15.582;2023-08-31T08:10:36;5.13;;;1.90;;
75437;SDS011;64015;49.392;15.582;2023-08-31T08:13:02;3.60;;;2.33;;
75437;SDS011;64015;49.392;15.582;2023-08-31T08:17:55;3.10;;;1.80;;
75437;SDS011;64015;49.392;15.582;2023-08-31T08:20:22;3.05;;;1.95;;
75437;SDS011;64015;49.392;15.582;2023-08-31T08:22:48;2.70;;;1.95;;
75437;SDS011;64015;49.392;15.582;2023-08-31T08:25:20;2.20;;;1.23;;
75437;SDS011;64015;49.392;15.582;2023-08-31T08:27:46;2.35;;;1.23;;
75437;SDS011;64015;49.392;15.582;2023-08-31T08:30:12;1.80;;;0.90;;
75437;SDS011;64015;49.392;15.582;2023-08-31T08:35:05;2.00;;;1.30;;
75437;SDS011;64015;49.392;15.582;2023-08-31T08:37:31;2.30;;;1.25;;
75437;SDS011;64015;49.392;15.582;2023-08-31T08:40:00;5.30;;;1.30;;
75437;SDS011;64015;49.392;15.582;2023-08-31T08:42:26;2.47;;;1.10;;
75437;SDS011;64015;49.392;15.582;2023-08-31T08:44:58;2.88;;;1.33;;
75437;SDS011;64015;49.392;15.582;2023-08-31T08:47:26;2.53;;;1.00;;
75437;SDS011;64015;49.392;15.582;2023-08-31T08:49:53;2.95;;;1.13;;
75437;SDS011;64015;49.392;15.582;2023-08-31T08:52:21;1.80;;;0.88;;
75437;SDS011;64015;49.392;15.582;2023-08-31T08:54:47;2.08;;;1.00;;
75437;SDS011;64015;49.392;15.582;2023-08-31T08:57:15;2.83;;;1.30;;
75437;SDS011;64015;49.392;15.582;2023-08-31T08:59:40;1.95;;;0.95;;
75437;SDS011;64015;49.392;15.582;2023-08-31T09:02:07;5.65;;;0.98;;
75437;SDS011;64015;49.392;15.582;2023-08-31T09:04:35;1.77;;;0.82;;
75437;SDS011;64015;49.392;15.582;2023-08-31T09:07:01;1.83;;;0.93;;
75437;SDS011;64015;49.392;15.582;2023-08-31T09:09:27;2.53;;;1.17;;
75437;SDS011;64015;49.392;15.582;2023-08-31T09:11:53;2.28;;;0.80;;
75437;SDS011;64015;49.392;15.582;2023-08-31T09:14:21;2.92;;;1.00;;
75437;SDS011;64015;49.392;15.582;2023-08-31T09:16:50;4.10;;;1.02;;
75437;SDS011;64015;49.392;15.582;2023-08-31T09:19:21;1.80;;;0.75;;
75437;SDS011;64015;49.392;15.582;2023-08-31T09:21:58;2.20;;;0.90;;
75437;SDS011;64015;49.392;15.582;2023-08-31T09:24:23;3.50;;;0.98;;
75437;SDS011;64015;49.392;15.582;2023-08-31T09:29:19;2.03;;;1.10;;
75437;SDS011;64015;49.392;15.582;2023-08-31T09:31:45;2.10;;;1.17;;
75437;SDS011;64015;49.392;15.582;2023-08-31T09:34:12;7.25;;;1.30;;
75437;SDS011;64015;49.392;15.582;2023-08-31T09:36:38;2.40;;;1.20;;
75437;SDS011;64015;49.392;15.582;2023-08-31T09:39:04;1.80;;;0.90;;
75437;SDS011;64015;49.392;15.582;2023-08-31T09:41:31;2.65;;;1.27;;
75437;SDS011;64015;49.392;15.582;2023-08-31T09:44:14;2.17;;;0.93;;
75437;SDS011;64015;49.392;15.582;2023-08-31T09:46:41;2.60;;;1.10;;
75437;SDS011;64015;49.392;15.582;2023-08-31T09:49:08;2.10;;;1.00;;
75437;SDS011;64015;49.392;15.582;2023-08-31T09:51:35;2.35;;;1.08;;
75437;SDS011;64015;49.392;15.582;2023-08-31T09:54:06;3.05;;;1.00;;
75437;SDS011;64015;49.392;15.582;2023-08-31T09:56:35;2.50;;;0.80;;
75437;SDS011;64015;49.392;15.582;2023-08-31T09:59:01;2.70;;;0.93;;
75437;SDS011;64015;49.392;15.582;2023-08-31T10:01:28;3.20;;;1.13;;
75437;SDS011;64015;49.392;15.582;2023-08-31T10:03:54;3.03;;;1.40;;
75437;SDS011;64015;49.392;15.582;2023-08-31T10:08:47;2.38;;;1.10;;
75437;SDS011;64015;49.392;15.582;2023-08-31T10:11:13;5.45;;;1.20;;
75437;SDS011;64015;49.392;15.582;2023-08-31T10:13:41;3.65;;;1.00;;
75437;SDS011;64015;49.392;15.582;2023-08-31T10:16:08;2.08;;;0.93;;
75437;SDS011;64015;49.392;15.582;2023-08-31T10:18:35;3.05;;;1.15;;
75437;SDS011;64015;49.392;15.582;2023-08-31T10:21:02;2.85;;;1.05;;
75437;SDS011;64015;49.392;15.582;2023-08-31T10:23:28;2.83;;;1.10;;
75437;SDS011;64015;49.392;15.582;2023-08-31T10:28:21;2.83;;;1.10;;
75437;SDS011;64015;49.392;15.582;2023-08-31T10:31:04;2.08;;;0.90;;
75437;SDS011;64015;49.392;15.582;2023-08-31T10:36:00;2.50;;;1.00;;
75437;SDS011;64015;49.392;15.582;2023-08-31T10:38:30;3.25;;;1.30;;
75437;SDS011;64015;49.392;15.582;2023-08-31T10:43:46;1.88;;;0.80;;
75437;SDS011;64015;49.392;15.582;2023-08-31T10:48:52;3.33;;;1.35;;
75437;SDS011;64015;49.392;15.582;2023-08-31T10:51:45;2.67;;;1.08;;
75437;SDS011;64015;49.392;15.582;2023-08-31T10:54:33;2.00;;;0.85;;
75437;SDS011;64015;49.392;15.582;2023-08-31T10:57:03;2.65;;;1.00;;
75437;SDS011;64015;49.392;15.582;2023-08-31T10:59:53;3.00;;;1.30;;
75437;SDS011;64015;49.392;15.582;2023-08-31T11:02:38;3.22;;;1.15;;
75437;SDS011;64015;49.392;15.582;2023-08-31T11:05:09;2.55;;;1.45;;
75437;SDS011;64015;49.392;15.582;2023-08-31T11:07:37;2.13;;;1.27;;
75437;SDS011;64015;49.392;15.582;2023-08-31T11:10:13;2.70;;;1.30;;
75437;SDS011;64015;49.392;15.582;2023-08-31T11:12:45;3.35;;;1.30;;
75437;SDS011;64015;49.392;15.582;2023-08-31T11:15:24;2.33;;;1.17;;
75437;SDS011;64015;49.392;15.582;2023-08-31T11:17:52;3.17;;;1.52;;
75437;SDS011;64015;49.392;15.582;2023-08-31T11:20:20;2.63;;;1.08;;
75437;SDS011;64015;49.392;15.582;2023-08-31T11:22:51;3.67;;;1.23;;
75437;SDS011;64015;49.392;15.582;2023-08-31T11:25:19;3.40;;;1.30;;
75437;SDS011;64015;49.392;15.582;2023-08-31T11:27:58;3.60;;;1.40;;
75437;SDS011;64015;49.392;15.582;2023-08-31T11:30:26;3.78;;;1.35;;
75437;SDS011;64015;49.392;15.582;2023-08-31T11:32:57;3.30;;;1.20;;
75437;SDS011;64015;49.392;15.582;2023-08-31T11:35:30;2.40;;;1.00;;
75437;SDS011;64015;49.392;15.582;2023-08-31T11:37:58;4.30;;;1.50;;
75437;SDS011;64015;49.392;15.582;2023-08-31T11:40:28;2.95;;;1.40;;
75437;SDS011;64015;49.392;15.582;2023-08-31T11:42:54;2.35;;;1.42;;
75437;SDS011;64015;49.392;15.582;2023-08-31T11:45:21;2.92;;;1.35;;
75437;SDS011;64015;49.392;15.582;2023-08-31T11:47:48;4.55;;;1.77;;
75437;SDS011;64015;49.392;15.582;2023-08-31T11:50:15;4.30;;;1.70;;
75437;SDS011;64015;49.392;15.582;2023-08-31T11:52:43;3.38;;;1.42;;
75437;SDS011;64015;49.392;15.582;2023-08-31T11:57:36;3.35;;;1.58;;
75437;SDS011;64015;49.392;15.582;2023-08-31T12:00:02;3.25;;;1.52;;
75437;SDS011;64015;49.392;15.582;2023-08-31T12:02:34;4.32;;;1.38;;
75437;SDS011;64015;49.392;15.582;2023-08-31T12:05:00;2.97;;;1.33;;
75437;SDS011;64015;49.392;15.582;2023-08-31T12:07:26;2.80;;;1.00;;
75437;SDS011;64015;49.392;15.582;2023-08-31T12:09:51;2.92;;;1.30;;
75437;SDS011;64015;49.392;15.582;2023-08-31T12:12:20;3.13;;;1.42;;
75437;SDS011;64015;49.392;15.582;2023-08-31T12:14:46;2.85;;;1.10;;
75437;SDS011;64015;49.392;15.582;2023-08-31T12:17:12;4.53;;;1.08;;
75437;SDS011;64015;49.392;15.582;2023-08-31T12:19:38;2.85;;;1.30;;
75437;SDS011;64015;49.392;15.582;2023-08-31T12:24:37;3.03;;;1.20;;
75437;SDS011;64015;49.392;15.582;2023-08-31T12:27:07;2.50;;;1.65;;
75437;SDS011;64015;49.392;15.582;2023-08-31T12:29:33;4.72;;;1.60;;
75437;SDS011;64015;49.392;15.582;2023-08-31T12:31:59;3.67;;;1.08;;
75437;SDS011;64015;49.392;15.582;2023-08-31T12:34:25;4.55;;;1.65;;
75437;SDS011;64015;49.392;15.582;2023-08-31T12:36:51;3.05;;;1.20;;
75437;SDS011;64015;49.392;15.582;2023-08-31T12:39:17;5.50;;;1.85;;
75437;SDS011;64015;49.392;15.582;2023-08-31T12:41:45;2.88;;;1.08;;
75437;SDS011;64015;49.392;15.582;2023-08-31T12:44:10;3.42;;;1.20;;
75437;SDS011;64015;49.392;15.582;2023-08-31T12:46:36;2.97;;;1.33;;
75437;SDS011;64015;49.392;15.582;2023-08-31T12:49:02;3.60;;;1.27;;
75437;SDS011;64015;49.392;15.582;2023-08-31T12:51:29;4.43;;;1.40;;
75437;SDS011;64015;49.392;15.582;2023-08-31T12:53:55;4.68;;;1.55;;
75437;SDS011;64015;49.392;15.582;2023-08-31T12:56:22;3.15;;;1.38;;
75437;SDS011;64015;49.392;15.582;2023-08-31T12:58:51;4.43;;;1.33;;
75437;SDS011;64015;49.392;15.582;2023-08-31T13:01:18;3.55;;;1.67;;
75437;SDS011;64015;49.392;15.582;2023-08-31T13:03:46;3.42;;;1.30;;
75437;SDS011;64015;49.392;15.582;2023-08-31T13:06:15;4.63;;;1.70;;
75437;SDS011;64015;49.392;15.582;2023-08-31T13:08:41;4.65;;;1.58;;
75437;SDS011;64015;49.392;15.582;2023-08-31T13:11:09;5.70;;;1.92;;
75437;SDS011;64015;49.392;15.582;2023-08-31T13:13:35;3.80;;;1.45;;
75437;SDS011;64015;49.392;15.582;2023-08-31T13:16:00;4.80;;;1.60;;
75437;SDS011;64015;49.392;15.582;2023-08-31T13:18:26;3.47;;;1.35;;
75437;SDS011;64015;49.392;15.582;2023-08-31T13:20:53;3.80;;;1.63;;
75437;SDS011;64015;49.392;15.582;2023-08-31T13:23:20;3.17;;;1.42;;
75437;SDS011;64015;49.392;15.582;2023-08-31T13:25:47;3.08;;;1.42;;
75437;SDS011;64015;49.392;15.582;2023-08-31T13:28:13;4.55;;;2.00;;
75437;SDS011;64015;49.392;15.582;2023-08-31T13:30:39;3.42;;;1.30;;
75437;SDS011;64015;49.392;15.582;2023-08-31T13:33:04;5.00;;;1.67;;
75437;SDS011;64015;49.392;15.582;2023-08-31T13:35:32;4.68;;;1.88;;
75437;SDS011;64015;49.392;15.582;2023-08-31T13:37:58;3.78;;;1.40;;
75437;SDS011;64015;49.392;15.582;2023-08-31T13:40:24;4.47;;;1.42;;
75437;SDS011;64015;49.392;15.582;2023-08-31T13:42:54;3.33;;;1.67;;
75437;SDS011;64015;49.392;15.582;2023-08-31T13:45:26;3.72;;;1.38;;
75437;SDS011;64015;49.392;15.582;2023-08-31T13:47:52;3.53;;;1.42;;
75437;SDS011;64015;49.392;15.582;2023-08-31T13:52:44;4.53;;;1.75;;
75437;SDS011;64015;49.392;15.582;2023-08-31T13:55:10;6.10;;;1.40;;
75437;SDS011;64015;49.392;15.582;2023-08-31T13:57:36;3.65;;;1.40;;
75437;SDS011;64015;49.392;15.582;2023-08-31T14:00:03;4.43;;;1.50;;
75437;SDS011;64015;49.392;15.582;2023-08-31T14:02:35;4.68;;;1.70;;
75437;SDS011;64015;49.392;15.582;2023-08-31T14:05:02;4.38;;;1.52;;
75437;SDS011;64015;49.392;15.582;2023-08-31T14:09:54;2.45;;;1.50;;
75437;SDS011;64015;49.392;15.582;2023-08-31T14:12:20;3.78;;;1.42;;
75437;SDS011;64015;49.392;15.582;2023-08-31T14:14:47;3.03;;;1.27;;
75437;SDS011;64015;49.392;15.582;2023-08-31T14:17:13;3.83;;;1.65;;
75437;SDS011;64015;49.392;15.582;2023-08-31T14:22:05;3.42;;;1.50;;
75437;SDS011;64015;49.392;15.582;2023-08-31T14:24:31;2.22;;;1.35;;
75437;SDS011;64015;49.392;15.582;2023-08-31T14:26:57;2.42;;;1.33;;
75437;SDS011;64015;49.392;15.582;2023-08-31T14:29:23;4.97;;;1.60;;
75437;SDS011;64015;49.392;15.582;2023-08-31T14:31:49;5.50;;;1.60;;
75437;SDS011;64015;49.392;15.582;2023-08-31T14:34:14;2.80;;;1.45;;
75437;SDS011;64015;49.392;15.582;2023-08-31T14:36:40;3.97;;;1.63;;
75437;SDS011;64015;49.392;15.582;2023-08-31T14:39:06;5.28;;;1.67;;
75437;SDS011;64015;49.392;15.582;2023-08-31T14:41:32;4.32;;;1.63;;
75437;SDS011;64015;49.392;15.582;2023-08-31T14:43:57;4.20;;;1.73;;
75437;SDS011;64015;49.392;15.582;2023-08-31T14:46:23;4.07;;;1.80;;
75437;SDS011;64015;49.392;15.582;2023-08-31T14:48:49;3.20;;;1.40;;
75437;SDS011;64015;49.392;15.582;2023-08-31T14:51:16;3.20;;;1.20;;
75437;SDS011;64015;49.392;15.582;2023-08-31T14:53:42;2.88;;;1.38;;
75437;SDS011;64015;49.392;15.582;2023-08-31T14:56:08;2.42;;;1.10;;
75437;SDS011;64015;49.392;15.582;2023-08-31T14:58:34;5.15;;;1.40;;
75437;SDS011;64015;49.392;15.582;2023-08-31T15:00:59;3.42;;;1.35;;
75437;SDS011;64015;49.392;15.582;2023-08-31T15:05:51;3.22;;;1.50;;
75437;SDS011;64015;49.392;15.582;2023-08-31T15:08:17;3.47;;;1.38;;
75437;SDS011;64015;49.392;15.582;2023-08-31T15:10:43;5.53;;;1.67;;
75437;SDS011;64015;49.392;15.582;2023-08-31T15:13:09;3.85;;;1.70;;
75437;SDS011;64015;49.392;15.582;2023-08-31T15:15:34;2.83;;;1.13;;
75437;SDS011;64015;49.392;15.582;2023-08-31T15:18:00;3.75;;;1.45;;
75437;SDS011;64015;49.392;15.582;2023-08-31T15:20:26;3.90;;;1.33;;
75437;SDS011;64015;49.392;15.582;2023-08-31T15:22:53;3.63;;;1.70;;
75437;SDS011;64015;49.392;15.582;2023-08-31T15:25:19;3.50;;;1.55;;
75437;SDS011;64015;49.392;15.582;2023-08-31T15:27:45;3.05;;;1.30;;
75437;SDS011;64015;49.392;15.582;2023-08-31T15:30:11;3.95;;;1.38;;
75437;SDS011;64015;49.392;15.582;2023-08-31T15:35:03;4.20;;;1.35;;
75437;SDS011;64015;49.392;15.582;2023-08-31T15:37:30;3.28;;;1.10;;
75437;SDS011;64015;49.392;15.582;2023-08-31T15:39:56;3.47;;;1.48;;
75437;SDS011;64015;49.392;15.582;2023-08-31T15:42:23;5.80;;;1.77;;
75437;SDS011;64015;49.392;15.582;2023-08-31T15:44:50;2.35;;;1.05;;
75437;SDS011;64015;49.392;15.582;2023-08-31T15:47:18;2.92;;;1.50;;
75437;SDS011;64015;49.392;15.582;2023-08-31T15:49:44;2.92;;;1.15;;
75437;SDS011;64015;49.392;15.582;2023-08-31T15:52:10;2.75;;;1.30;;